Mullan Pass, ID

9:41 PM PST on December 11, 2017 (GMT -0800)
Mullan Pass

Weather History for KMLP - December, 2013

Change the Weather History Date:

Sunday, December 1, 2013

  Actual Average (K3TH) Record (K3TH)
Temperature  
Mean Temperature 32 °F -  
Max Temperature 34 °F 34 °F 42 °F (1997)
Min Temperature 30 °F 28 °F 30 °F (1996)
Degree Days  
Heating Degree Days 33    
Moisture  
Dew Point 30 °F    
Average Humidity 91    
Maximum Humidity 100    
Minimum Humidity 81    
Precipitation  
Precipitation 1.31 in - - ()
Sea Level Pressure  
Sea Level Pressure 29.72 in    
Wind  
Wind Speed 7 mph (WSW)    
Max Wind Speed 18 mph    
Max Gust Speed 40 mph    
Visibility 1 miles    
Events Fog , Rain , Snow    
Averages and records for this station are not official NWS values.
T = Trace of Precipitation, MM = Missing Value Source: NWS Daily Summary

Daily Weather History Graph

Daily Weather History Graph

Search for Another Location

Airport or City:

Trip Planner

Search our weather history database for the weather conditions in past years. The results will help you decide how hot, cold, wet, or windy it might be!

Date:

Astronomy

Dec. 01, 2013 Rise Set
Actual Time 7:09 AM PST 3:53 PM PST
Civil Twilight 6:34 AM PST 4:28 PM PST
Nautical Twilight 5:56 AM PST 5:07 PM PST
Astronomical Twilight 5:19 AM PST 5:44 PM PST
Moon 5:27 AM PST (12/1) 3:11 PM PST (12/1)
Length of Visible Light 9h 54m
Length of Day
8h 43m
Waning Crescent, 2% of the Moon is Illuminated
Dec 1
Waning Crescent
Dec 2
New
Dec 9
First Quarter
Dec 17
Full
Dec 25
Last Quarter

Hourly Weather History & Observations

Time (PST) Temp. Windchill Dew Point Humidity Pressure Visibility Wind Dir Wind Speed Gust Speed Precip Events Conditions
12:12 AM 33.8 °F 30.8 °F 28.4 °F 81% 30.05 in 0.2 mi Variable 3.5 mph - 0.00 in Fog , Snow Light Snow
12:23 AM 33.8 °F 28.6 °F 28.4 °F 81% 30.05 in 0.5 mi Variable 5.8 mph - 0.01 in Snow Snow
12:41 AM 33.8 °F 28.6 °F 28.4 °F 81% 30.04 in 0.2 mi Variable 5.8 mph - 0.03 in Fog , Snow Snow
12:53 AM 32.0 °F 24.8 °F 28.0 °F 85% 29.97 in 0.5 mi WSW 8.1 mph - 0.03 in Fog , Snow Snow
1:00 AM 32.0 °F 25.6 °F 28.4 °F 87% 30.03 in 0.2 mi Variable 6.9 mph - 0.00 in Fog , Snow Light Snow
1:11 AM 32.0 °F 24.8 °F 28.4 °F 87% 30.03 in 0.5 mi WSW 8.1 mph - 0.01 in Fog , Snow Light Snow
1:24 AM 32.0 °F 25.6 °F 28.4 °F 87% 30.04 in 0.2 mi WSW 6.9 mph - 0.01 in Fog , Snow Light Snow
1:53 AM 32.0 °F 26.4 °F 28.0 °F 85% 29.96 in 0.5 mi Variable 5.8 mph - 0.02 in Fog , Snow Light Snow
2:53 AM 32.0 °F 26.4 °F 28.0 °F 85% 29.93 in 0.5 mi Variable 5.8 mph - 0.00 in Fog , Snow Light Snow
3:24 AM 32.0 °F 25.6 °F 28.4 °F 87% 29.99 in 0.2 mi Variable 6.9 mph 18.4 mph 0.01 in Fog , Snow Light Snow
3:37 AM 30.2 °F 21.9 °F 28.4 °F 93% 29.98 in 0.5 mi WSW 9.2 mph 16.1 mph 0.01 in Fog , Snow Light Snow
3:53 AM 30.9 °F 23.5 °F 28.0 °F 89% 29.90 in 0.8 mi SW 8.1 mph 16.1 mph 0.01 in Snow Light Snow
4:53 AM 30.9 °F 24.3 °F 28.0 °F 89% 29.85 in 0.5 mi Variable 6.9 mph 16.1 mph 0.03 in Fog , Snow Light Snow
5:53 AM 32.0 °F 25.6 °F 28.0 °F 85% 29.80 in 0.5 mi SW 6.9 mph - 0.05 in Fog , Snow Snow
6:53 AM 30.9 °F 24.3 °F 27.0 °F 85% 29.76 in 0.5 mi Variable 6.9 mph - 0.05 in Fog , Snow Snow
7:21 AM 30.2 °F 24.3 °F 26.6 °F 86% 29.82 in 0.2 mi Variable 5.8 mph - 0.05 in Fog , Snow Snow
7:53 AM 30.9 °F 24.3 °F 27.0 °F 85% 29.72 in 0.2 mi Variable 6.9 mph 16.1 mph 0.11 in Fog , Snow Snow
8:53 AM 30.9 °F 24.3 °F 27.0 °F 85% 29.68 in 0.2 mi Variable 6.9 mph 18.4 mph 0.11 in Fog , Snow Snow
9:53 AM 30.9 °F 25.2 °F 28.0 °F 89% 29.66 in 0.2 mi Variable 5.8 mph - 0.11 in Fog , Snow Snow
10:53 AM 32.0 °F 24.2 °F 28.9 °F 88% 29.65 in 0.2 mi West 9.2 mph 21.9 mph 0.09 in Fog , Snow Heavy Snow
11:53 AM 32.0 °F 28.7 °F 28.9 °F 88% 29.64 in 0.2 mi Variable 3.5 mph - 0.12 in Fog , Snow Snow
12:53 PM 33.1 °F 30.0 °F 30.0 °F 89% 29.63 in 0.2 mi Variable 3.5 mph - 0.09 in Fog , Snow Snow
1:42 PM 33.8 °F 27.7 °F 30.2 °F 87% 29.72 in 0.5 mi Variable 6.9 mph 20.7 mph 0.06 in Fog , Snow Snow
1:53 PM 34.0 °F 27.2 °F 30.9 °F 89% 29.63 in 0.2 mi West 8.1 mph 21.9 mph 0.07 in Fog , Snow Snow
2:53 PM 33.1 °F 28.7 °F 30.9 °F 92% 29.64 in 0.2 mi Variable 4.6 mph - 0.06 in Fog , Snow Heavy Snow
3:37 PM 33.8 °F 27.7 °F 30.2 °F 87% 29.74 in 0.5 mi Variable 6.9 mph - 0.04 in Fog , Snow Light Snow
3:53 PM 33.1 °F 27.7 °F 30.9 °F 92% 29.66 in 0.5 mi Variable 5.8 mph - 0.06 in Fog , Snow Light Snow
4:53 PM 34.0 °F 28.8 °F 30.9 °F 89% 29.65 in 0.5 mi Variable 5.8 mph - 0.02 in Fog Fog
5:02 PM 33.8 °F 27.7 °F 30.2 °F 87% 29.74 in 0.8 mi Variable 6.9 mph 20.7 mph 0.00 in Rain Light Freezing Rain
5:12 PM 33.8 °F 27.7 °F 30.2 °F 87% 29.74 in 0.8 mi Variable 6.9 mph 18.4 mph 0.00 in Snow Light Snow
5:16 PM 33.8 °F 26.4 °F 30.2 °F 87% 29.73 in 1.5 mi West 9.2 mph 18.4 mph 0.00 in   Overcast
5:23 PM 33.8 °F 27.0 °F 30.2 °F 87% 29.73 in 8.0 mi WSW 8.1 mph 19.6 mph 0.00 in   Overcast
5:49 PM 33.8 °F 27.7 °F 30.2 °F 87% 29.73 in 2.0 mi Variable 6.9 mph 21.9 mph 0.01 in Snow Light Snow
5:53 PM 33.1 °F 27.7 °F 30.9 °F 92% 29.64 in 1.8 mi Variable 5.8 mph - 0.01 in Snow Light Snow
6:10 PM 33.8 °F 25.8 °F 30.2 °F 87% 29.72 in 2.0 mi West 10.4 mph 16.1 mph 0.00 in Rain Light Freezing Rain
6:13 PM 33.8 °F 27.0 °F 30.2 °F 87% 29.71 in 3.0 mi West 8.1 mph 16.1 mph 0.00 in Snow Light Snow
6:22 PM 33.8 °F 27.0 °F 30.2 °F 87% 29.71 in 1.8 mi West 8.1 mph - 0.00 in Snow Light Snow
6:29 PM 33.8 °F 27.0 °F 30.2 °F 87% 29.70 in 0.8 mi West 8.1 mph - 0.00 in Snow Light Snow
6:37 PM 33.8 °F 26.4 °F 30.2 °F 87% 29.70 in 1.0 mi West 9.2 mph - 0.01 in Snow Light Snow
6:53 PM 33.1 °F 30.0 °F 30.9 °F 92% 29.60 in 0.8 mi Variable 3.5 mph - 0.02 in Snow Light Snow
7:02 PM 33.8 °F 28.6 °F 30.2 °F 87% 29.69 in 1.5 mi Variable 5.8 mph - 0.00 in Snow Light Snow
7:07 PM 33.8 °F 29.6 °F 30.2 °F 87% 29.68 in 0.8 mi Variable 4.6 mph - 0.01 in Snow Light Snow
7:53 PM 33.1 °F 27.7 °F 30.9 °F 92% 29.56 in 0.8 mi Variable 5.8 mph 19.6 mph 0.04 in Snow Light Snow
8:53 PM 30.9 °F 26.2 °F 30.9 °F 100% 29.55 in 0.5 mi Variable 4.6 mph - 0.08 in Fog , Snow Snow
9:26 PM 32.0 °F 25.6 °F 30.2 °F 93% 29.63 in 0.2 mi Variable 6.9 mph - 0.04 in Fog , Snow Snow
9:34 PM 32.0 °F 24.2 °F 30.2 °F 93% 29.62 in 0.8 mi WSW 9.2 mph 21.9 mph 0.04 in Snow Light Snow
9:37 PM 32.0 °F 23.0 °F 30.2 °F 93% 29.62 in 1.5 mi West 11.5 mph 21.9 mph 0.04 in Snow Light Snow
9:41 PM 32.0 °F 23.6 °F 30.2 °F 93% 29.62 in 3.0 mi SW 10.4 mph 25.3 mph 0.04 in Snow Light Snow
9:53 PM 32.0 °F 23.0 °F 32.0 °F 100% 29.52 in 6.0 mi WSW 11.5 mph 25.3 mph 0.05 in Snow Light Snow
9:59 PM 32.0 °F 22.5 °F 32.0 °F 100% 29.60 in 1.5 mi SW 12.7 mph 24.2 mph 0.00 in Snow Light Snow
10:02 PM 32.0 °F 23.6 °F 32.0 °F 100% 29.60 in 1.2 mi WSW 10.4 mph 24.2 mph 0.00 in Snow Light Snow
10:06 PM 32.0 °F 24.2 °F 32.0 °F 100% 29.60 in 1.5 mi WSW 9.2 mph 24.2 mph 0.00 in Snow Light Snow
10:12 PM 32.0 °F 26.4 °F 32.0 °F 100% 29.61 in 1.0 mi Variable 5.8 mph 18.4 mph 0.02 in Snow Light Snow
10:14 PM 32.0 °F 24.8 °F 32.0 °F 100% 29.61 in 0.8 mi West 8.1 mph - 0.02 in Snow Light Snow
10:23 PM 32.0 °F 23.6 °F 32.0 °F 100% 29.60 in 1.5 mi West 10.4 mph 27.6 mph 0.03 in Snow Light Snow
10:28 PM 32.0 °F 23.6 °F 32.0 °F 100% 29.59 in 3.0 mi West 10.4 mph 27.6 mph 0.03 in Snow Light Snow
10:34 PM 32.0 °F 23.6 °F 32.0 °F 100% 29.60 in 2.5 mi WNW 10.4 mph 21.9 mph 0.04 in   Overcast
10:42 PM 32.0 °F 23.0 °F 32.0 °F 100% 29.60 in 3.0 mi SW 11.5 mph 29.9 mph 0.04 in Snow Light Snow
10:45 PM 32.0 °F 24.2 °F 32.0 °F 100% 29.60 in 2.5 mi WSW 9.2 mph 29.9 mph 0.04 in Snow Light Snow
10:53 PM 32.0 °F 23.6 °F 32.0 °F 100% 29.50 in 3.0 mi WSW 10.4 mph 25.3 mph 0.04 in Snow Light Snow
11:00 PM 33.8 °F 25.3 °F 32.0 °F 93% 29.59 in 2.5 mi WSW 11.5 mph 25.3 mph 0.01 in Snow Light Snow
11:07 PM 32.0 °F 20.5 °F 30.2 °F 93% 29.59 in 2.0 mi WNW 18.4 mph 40.3 mph 0.01 in Rain Light Freezing Rain
11:11 PM 33.8 °F 24.3 °F 30.2 °F 87% 29.59 in 3.0 mi West 13.8 mph 40.3 mph 0.01 in Snow Light Snow
11:33 PM 32.0 °F 24.2 °F 30.2 °F 93% 29.58 in 4.0 mi West 9.2 mph 29.9 mph 0.03 in Snow Light Snow
11:53 PM 32.0 °F 23.6 °F 30.9 °F 96% 29.48 in 3.0 mi West 10.4 mph 26.5 mph 0.04 in Snow Light Snow